sensor_id;sensor_type;location;lat;lon;timestamp;pressure;altitude;pressure_sealevel;temperature;humidity
66524;BME280;53350;52.210;5.160;2022-09-01T00:01:53;102226.53;;;17.48;64.01
66524;BME280;53350;52.210;5.160;2022-09-01T00:04:21;102240.25;;;17.56;64.20
66524;BME280;53350;52.210;5.160;2022-09-01T00:06:51;102241.22;;;17.52;64.45
66524;BME280;53350;52.210;5.160;2022-09-01T00:09:20;102234.19;;;17.56;64.51
66524;BME280;53350;52.210;5.160;2022-09-01T00:11:48;102234.13;;;17.59;64.65
66524;BME280;53350;52.210;5.160;2022-09-01T00:14:16;102234.19;;;17.56;64.58
66524;BME280;53350;52.210;5.160;2022-09-01T00:16:43;102235.94;;;17.55;64.60
66524;BME280;53350;52.210;5.160;2022-09-01T00:19:09;102232.44;;;17.55;64.47
66524;BME280;53350;52.210;5.160;2022-09-01T00:21:38;102225.59;;;17.49;64.81
66524;BME280;53350;52.210;5.160;2022-09-01T00:24:07;102224.72;;;17.50;64.89
66524;BME280;53350;52.210;5.160;2022-09-01T00:26:34;102228.31;;;17.45;64.86
66524;BME280;53350;52.210;5.160;2022-09-01T00:29:01;102238.75;;;17.43;65.17
66524;BME280;53350;52.210;5.160;2022-09-01T00:31:28;102234.50;;;17.39;65.10
66524;BME280;53350;52.210;5.160;2022-09-01T00:33:55;102227.59;;;17.36;65.25
66524;BME280;53350;52.210;5.160;2022-09-01T00:36:22;102232.00;;;17.33;65.42
66524;BME280;53350;52.210;5.160;2022-09-01T00:38:49;102230.28;;;17.32;65.48
66524;BME280;53350;52.210;5.160;2022-09-01T00:41:18;102206.44;;;17.07;65.74
66524;BME280;53350;52.210;5.160;2022-09-01T00:43:47;102225.44;;;17.10;66.06
66524;BME280;53350;52.210;5.160;2022-09-01T00:46:18;102231.59;;;17.08;66.05
66524;BME280;53350;52.210;5.160;2022-09-01T00:48:45;102228.19;;;17.02;66.32
66524;BME280;53350;52.210;5.160;2022-09-01T00:51:14;102223.00;;;17.02;66.23
66524;BME280;53350;52.210;5.160;2022-09-01T00:53:42;102200.66;;;16.89;66.38
66524;BME280;53350;52.210;5.160;2022-09-01T00:56:10;102216.09;;;17.00;66.46
66524;BME280;53350;52.210;5.160;2022-09-01T00:58:39;102217.84;;;16.99;66.56
66524;BME280;53350;52.210;5.160;2022-09-01T01:01:07;102219.69;;;16.93;66.40
66524;BME280;53350;52.210;5.160;2022-09-01T01:03:34;102211.91;;;16.91;66.49
66524;BME280;53350;52.210;5.160;2022-09-01T01:06:04;102217.94;;;16.95;66.81
66524;BME280;53350;52.210;5.160;2022-09-01T01:08:34;102217.09;;;16.91;66.87
66524;BME280;53350;52.210;5.160;2022-09-01T01:11:04;102193.00;;;16.78;66.88
66524;BME280;53350;52.210;5.160;2022-09-01T01:13:31;102211.16;;;16.83;67.10
66524;BME280;53350;52.210;5.160;2022-09-01T01:16:01;102217.28;;;16.79;66.92
66524;BME280;53350;52.210;5.160;2022-09-01T01:18:30;102209.53;;;16.76;67.26
66524;BME280;53350;52.210;5.160;2022-09-01T01:21:01;102207.81;;;16.75;67.35
66524;BME280;53350;52.210;5.160;2022-09-01T01:23:50;102209.53;;;16.76;67.45
66524;BME280;53350;52.210;5.160;2022-09-01T01:26:22;102206.09;;;16.74;67.01
66524;BME280;53350;52.210;5.160;2022-09-01T01:28:48;102205.25;;;16.72;67.39
66524;BME280;53350;52.210;5.160;2022-09-01T01:31:19;102199.19;;;16.71;67.43
66524;BME280;53350;52.210;5.160;2022-09-01T01:33:49;102212.25;;;16.66;67.20
66524;BME280;53350;52.210;5.160;2022-09-01T01:36:19;102200.25;;;16.59;67.64
66524;BME280;53350;52.210;5.160;2022-09-01T01:38:55;102203.63;;;16.64;67.50
66524;BME280;53350;52.210;5.160;2022-09-01T01:41:25;102203.66;;;16.63;67.16
66524;BME280;53350;52.210;5.160;2022-09-01T01:43:51;102204.50;;;16.63;67.22
66524;BME280;53350;52.210;5.160;2022-09-01T01:46:18;102206.25;;;16.64;67.50
66524;BME280;53350;52.210;5.160;2022-09-01T01:48:44;102202.03;;;16.57;67.44
66524;BME280;53350;52.210;5.160;2022-09-01T01:51:11;102199.44;;;16.56;67.57
66524;BME280;53350;52.210;5.160;2022-09-01T01:53:38;102195.22;;;16.48;67.49
66524;BME280;53350;52.210;5.160;2022-09-01T01:56:05;102202.97;;;16.51;67.68
66524;BME280;53350;52.210;5.160;2022-09-01T01:58:34;102210.81;;;16.50;67.30
66524;BME280;53350;52.210;5.160;2022-09-01T02:01:01;102203.88;;;16.49;67.73
66524;BME280;53350;52.210;5.160;2022-09-01T02:03:32;102209.03;;;16.50;67.75
66524;BME280;53350;52.210;5.160;2022-09-01T02:06:04;102207.31;;;16.49;67.53
66524;BME280;53350;52.210;5.160;2022-09-01T02:08:35;102206.53;;;16.46;67.96
66524;BME280;53350;52.210;5.160;2022-09-01T02:11:04;102203.91;;;16.46;67.58
66524;BME280;53350;52.210;5.160;2022-09-01T02:13:31;102209.06;;;16.49;67.80
66524;BME280;53350;52.210;5.160;2022-09-01T02:16:01;102213.44;;;16.47;67.93
66524;BME280;53350;52.210;5.160;2022-09-01T02:18:33;102209.94;;;16.48;67.73
66524;BME280;53350;52.210;5.160;2022-09-01T02:21:01;102209.94;;;16.48;67.65
66524;BME280;53350;52.210;5.160;2022-09-01T02:23:27;102208.25;;;16.47;67.81
66524;BME280;53350;52.210;5.160;2022-09-01T02:25:58;102202.25;;;16.40;67.56
66524;BME280;53350;52.210;5.160;2022-09-01T02:28:28;102210.91;;;16.44;67.86
66524;BME280;53350;52.210;5.160;2022-09-01T02:30:56;102216.13;;;16.41;67.72
66524;BME280;53350;52.210;5.160;2022-09-01T02:33:25;102210.97;;;16.38;67.64
66524;BME280;53350;52.210;5.160;2022-09-01T02:35:55;102210.97;;;16.38;68.04
66524;BME280;53350;52.210;5.160;2022-09-01T02:38:23;102205.78;;;16.36;67.44
66524;BME280;53350;52.210;5.160;2022-09-01T02:40:50;102207.53;;;16.36;67.84
66524;BME280;53350;52.210;5.160;2022-09-01T02:43:18;102211.00;;;16.34;67.80
66524;BME280;53350;52.210;5.160;2022-09-01T02:45:46;102211.03;;;16.33;67.61
66524;BME280;53350;52.210;5.160;2022-09-01T02:48:16;102202.50;;;16.23;67.66
66524;BME280;53350;52.210;5.160;2022-09-01T02:50:43;102206.97;;;16.15;68.06
66524;BME280;53350;52.210;5.160;2022-09-01T02:53:10;102211.34;;;16.10;68.32
66524;BME280;53350;52.210;5.160;2022-09-01T02:55:40;102203.53;;;16.11;68.09
66524;BME280;53350;52.210;5.160;2022-09-01T02:58:07;102210.44;;;16.14;68.11
66524;BME280;53350;52.210;5.160;2022-09-01T03:00:40;102201.78;;;16.13;68.28
66524;BME280;53350;52.210;5.160;2022-09-01T03:03:07;102199.19;;;16.13;68.13
66524;BME280;53350;52.210;5.160;2022-09-01T03:05:34;102193.97;;;16.12;67.99
66524;BME280;53350;52.210;5.160;2022-09-01T03:08:07;102196.59;;;16.13;68.25
66524;BME280;53350;52.210;5.160;2022-09-01T03:10:36;102195.78;;;16.08;68.23
66524;BME280;53350;52.210;5.160;2022-09-01T03:13:07;102199.31;;;16.03;68.42
66524;BME280;53350;52.210;5.160;2022-09-01T03:15:35;102202.84;;;15.98;68.55
66524;BME280;53350;52.210;5.160;2022-09-01T03:18:03;102202.84;;;15.98;68.30
66524;BME280;53350;52.210;5.160;2022-09-01T03:20:31;102196.88;;;15.92;68.26
66524;BME280;53350;52.210;5.160;2022-09-01T03:22:58;102199.47;;;15.92;68.26
66524;BME280;53350;52.210;5.160;2022-09-01T03:25:26;102198.59;;;15.91;68.35
66524;BME280;53350;52.210;5.160;2022-09-01T03:27:54;102198.63;;;15.88;68.31
66524;BME280;53350;52.210;5.160;2022-09-01T03:30:26;102191.72;;;15.86;68.23
66524;BME280;53350;52.210;5.160;2022-09-01T03:32:54;102191.78;;;15.82;68.29
66524;BME280;53350;52.210;5.160;2022-09-01T03:35:20;102190.06;;;15.83;68.13
66524;BME280;53350;52.210;5.160;2022-09-01T03:37:47;102188.28;;;15.85;68.16
66524;BME280;53350;52.210;5.160;2022-09-01T03:40:13;102186.53;;;15.86;68.08
66524;BME280;53350;52.210;5.160;2022-09-01T03:42:44;102185.66;;;15.87;67.81
66524;BME280;53350;52.210;5.160;2022-09-01T03:45:11;102184.81;;;15.86;68.04
66524;BME280;53350;52.210;5.160;2022-09-01T03:47:40;102190.88;;;15.87;67.82
66524;BME280;53350;52.210;5.160;2022-09-01T03:50:10;102190.88;;;15.87;67.67
66524;BME280;53350;52.210;5.160;2022-09-01T03:52:42;102186.50;;;15.87;67.42
66524;BME280;53350;52.210;5.160;2022-09-01T03:55:08;102181.34;;;15.86;67.34
66524;BME280;53350;52.210;5.160;2022-09-01T03:57:35;102166.72;;;15.75;67.03
66524;BME280;53350;52.210;5.160;2022-09-01T04:00:08;102179.69;;;15.80;67.21
66524;BME280;53350;52.210;5.160;2022-09-01T04:02:44;102182.31;;;15.75;67.24
66524;BME280;53350;52.210;5.160;2022-09-01T04:05:11;102183.19;;;15.76;67.13
66524;BME280;53350;52.210;5.160;2022-09-01T04:07:38;102186.66;;;15.75;66.97
66524;BME280;53350;52.210;5.160;2022-09-01T04:10:05;102183.19;;;15.76;67.07
66524;BME280;53350;52.210;5.160;2022-09-01T04:12:35;102178.88;;;15.75;66.93
66524;BME280;53350;52.210;5.160;2022-09-01T04:15:03;102182.28;;;15.77;66.62
66524;BME280;53350;52.210;5.160;2022-09-01T04:17:31;102180.59;;;15.76;66.73
66524;BME280;53350;52.210;5.160;2022-09-01T04:20:15;102180.59;;;15.76;66.42
66524;BME280;53350;52.210;5.160;2022-09-01T04:22:44;102176.31;;;15.72;66.60
66524;BME280;53350;52.210;5.160;2022-09-01T04:25:11;102184.06;;;15.75;66.31
66524;BME280;53350;52.210;5.160;2022-09-01T04:27:39;102177.13;;;15.74;65.85
66524;BME280;53350;52.210;5.160;2022-09-01T04:30:08;102178.91;;;15.72;65.72
66524;BME280;53350;52.210;5.160;2022-09-01T04:32:37;102179.78;;;15.71;65.75
66524;BME280;53350;52.210;5.160;2022-09-01T04:35:05;102172.88;;;15.67;65.66
66524;BME280;53350;52.210;5.160;2022-09-01T04:37:32;102180.72;;;15.63;65.84
66524;BME280;53350;52.210;5.160;2022-09-01T04:40:02;102187.69;;;15.61;65.42
66524;BME280;53350;52.210;5.160;2022-09-01T04:42:29;102175.59;;;15.59;65.68
66524;BME280;53350;52.210;5.160;2022-09-01T04:44:57;102185.13;;;15.57;65.48
66524;BME280;53350;52.210;5.160;2022-09-01T04:47:25;102179.91;;;15.61;65.28
66524;BME280;53350;52.210;5.160;2022-09-01T04:49:56;102181.66;;;15.58;65.58
66524;BME280;53350;52.210;5.160;2022-09-01T04:52:24;102165.34;;;15.46;65.30
66524;BME280;53350;52.210;5.160;2022-09-01T04:54:50;102186.81;;;15.59;65.36
66524;BME280;53350;52.210;5.160;2022-09-01T04:57:18;102183.38;;;15.59;65.08
66524;BME280;53350;52.210;5.160;2022-09-01T04:59:45;102181.63;;;15.59;65.09
66524;BME280;53350;52.210;5.160;2022-09-01T05:02:12;102182.53;;;15.58;64.92
66524;BME280;53350;52.210;5.160;2022-09-01T05:04:38;102190.34;;;15.55;64.80
66524;BME280;53350;52.210;5.160;2022-09-01T05:07:10;102176.53;;;15.53;64.93
66524;BME280;53350;52.210;5.160;2022-09-01T05:09:38;102172.28;;;15.46;65.04
66524;BME280;53350;52.210;5.160;2022-09-01T05:12:05;102180.00;;;15.51;64.91
66524;BME280;53350;52.210;5.160;2022-09-01T05:14:36;102180.00;;;15.51;64.74
66524;BME280;53350;52.210;5.160;2022-09-01T05:17:03;102186.94;;;15.50;64.67
66524;BME280;53350;52.210;5.160;2022-09-01T05:19:35;102184.31;;;15.52;64.64
66524;BME280;53350;52.210;5.160;2022-09-01T05:22:02;102190.31;;;15.57;64.74
66524;BME280;53350;52.210;5.160;2022-09-01T05:24:30;102187.72;;;15.60;64.46
66524;BME280;53350;52.210;5.160;2022-09-01T05:26:59;102185.09;;;15.61;64.16
66524;BME280;53350;52.210;5.160;2022-09-01T05:29:26;102186.00;;;15.57;64.20
66524;BME280;53350;52.210;5.160;2022-09-01T05:31:53;102189.44;;;15.58;63.96
66524;BME280;53350;52.210;5.160;2022-09-01T05:34:21;102188.53;;;15.62;64.09
66524;BME280;53350;52.210;5.160;2022-09-01T05:36:50;102179.06;;;15.56;64.14
66524;BME280;53350;52.210;5.160;2022-09-01T05:39:17;102186.84;;;15.58;63.96
66524;BME280;53350;52.210;5.160;2022-09-01T05:41:46;102189.38;;;15.64;64.07
66524;BME280;53350;52.210;5.160;2022-09-01T05:44:13;102184.16;;;15.65;63.72
66524;BME280;53350;52.210;5.160;2022-09-01T05:46:41;102190.22;;;15.68;63.65
66524;BME280;53350;52.210;5.160;2022-09-01T05:49:09;102198.00;;;15.68;63.57
66524;BME280;53350;52.210;5.160;2022-09-01T05:51:40;102191.88;;;15.72;63.56
66524;BME280;53350;52.210;5.160;2022-09-01T05:54:07;102187.53;;;15.74;63.36
66524;BME280;53350;52.210;5.160;2022-09-01T05:56:35;102187.53;;;15.74;63.29
66524;BME280;53350;52.210;5.160;2022-09-01T05:59:06;102195.28;;;15.77;63.15
66524;BME280;53350;52.210;5.160;2022-09-01T06:01:34;102193.53;;;15.80;63.11
66524;BME280;53350;52.210;5.160;2022-09-01T06:04:05;102195.28;;;15.81;63.14
66524;BME280;53350;52.210;5.160;2022-09-01T06:06:35;102199.56;;;15.82;63.13
66524;BME280;53350;52.210;5.160;2022-09-01T06:09:03;102194.34;;;15.86;62.84
66524;BME280;53350;52.210;5.160;2022-09-01T06:11:31;102195.22;;;15.86;62.85
66524;BME280;53350;52.210;5.160;2022-09-01T06:13:58;102197.84;;;15.85;62.81
66524;BME280;53350;52.210;5.160;2022-09-01T06:16:26;102193.41;;;15.90;62.82
66524;BME280;53350;52.210;5.160;2022-09-01T06:18:54;102193.41;;;15.91;62.77
66524;BME280;53350;52.210;5.160;2022-09-01T06:21:24;102190.78;;;15.93;62.76
66524;BME280;53350;52.210;5.160;2022-09-01T06:23:53;102202.88;;;15.95;62.78
66524;BME280;53350;52.210;5.160;2022-09-01T06:26:22;102199.28;;;16.04;62.52
66524;BME280;53350;52.210;5.160;2022-09-01T06:28:51;102194.00;;;16.13;62.45
66524;BME280;53350;52.210;5.160;2022-09-01T06:31:19;102194.84;;;16.14;62.16
66524;BME280;53350;52.210;5.160;2022-09-01T06:33:49;102193.00;;;16.22;62.00
66524;BME280;53350;52.210;5.160;2022-09-01T06:36:17;102193.72;;;16.32;61.57
66524;BME280;53350;52.210;5.160;2022-09-01T06:38:46;102198.81;;;16.40;61.64
66524;BME280;53350;52.210;5.160;2022-09-01T06:41:13;102195.13;;;16.53;61.21
66524;BME280;53350;52.210;5.160;2022-09-01T06:43:39;102196.66;;;16.66;61.06
66524;BME280;53350;52.210;5.160;2022-09-01T06:46:07;102199.91;;;16.81;60.73
66524;BME280;53350;52.210;5.160;2022-09-01T06:48:34;102202.31;;;16.95;60.18
66524;BME280;53350;52.210;5.160;2022-09-01T06:51:05;102206.44;;;17.07;59.79
66524;BME280;53350;52.210;5.160;2022-09-01T06:53:33;102194.94;;;17.18;59.36
66524;BME280;53350;52.210;5.160;2022-09-01T06:56:00;102204.16;;;17.36;58.84
66524;BME280;53350;52.210;5.160;2022-09-01T06:58:27;102208.34;;;17.45;58.41
66524;BME280;53350;52.210;5.160;2022-09-01T07:00:55;102214.25;;;17.53;57.74
66524;BME280;53350;52.210;5.160;2022-09-01T07:03:22;102207.97;;;17.64;57.78
66524;BME280;53350;52.210;5.160;2022-09-01T07:05:49;102203.59;;;17.66;57.43
66524;BME280;53350;52.210;5.160;2022-09-01T07:08:17;102205.09;;;17.78;57.38
66524;BME280;53350;52.210;5.160;2022-09-01T07:10:47;102199.03;;;17.77;56.95
66524;BME280;53350;52.210;5.160;2022-09-01T07:13:16;102213.50;;;17.92;57.15
66524;BME280;53350;52.210;5.160;2022-09-01T07:15:47;102219.44;;;18.00;56.80
66524;BME280;53350;52.210;5.160;2022-09-01T07:18:14;102208.03;;;18.04;56.78
66524;BME280;53350;52.210;5.160;2022-09-01T07:20:42;102214.75;;;18.16;56.57
66524;BME280;53350;52.210;5.160;2022-09-01T07:23:09;102220.59;;;18.26;56.39
66524;BME280;53350;52.210;5.160;2022-09-01T07:25:41;102210.81;;;18.36;56.08
66524;BME280;53350;52.210;5.160;2022-09-01T07:28:08;102205.22;;;18.53;55.47
66524;BME280;53350;52.210;5.160;2022-09-01T07:30:40;102210.94;;;18.67;54.73
66524;BME280;53350;52.210;5.160;2022-09-01T07:33:07;102209.75;;;18.81;54.14
66524;BME280;53350;52.210;5.160;2022-09-01T07:35:36;102208.56;;;18.94;53.89
66524;BME280;53350;52.210;5.160;2022-09-01T07:38:03;102209.28;;;19.01;53.03
66524;BME280;53350;52.210;5.160;2022-09-01T07:40:34;102203.69;;;19.15;52.24
66524;BME280;53350;52.210;5.160;2022-09-01T07:43:05;102201.72;;;19.23;52.07
66524;BME280;53350;52.210;5.160;2022-09-01T07:45:34;102205.56;;;19.42;51.03
66524;BME280;53350;52.210;5.160;2022-09-01T07:48:04;102205.38;;;19.49;51.25
66524;BME280;53350;52.210;5.160;2022-09-01T07:50:31;102208.66;;;19.57;51.29
66524;BME280;53350;52.210;5.160;2022-09-01T07:52:58;102217.66;;;19.76;50.15
66524;BME280;53350;52.210;5.160;2022-09-01T07:55:26;102211.19;;;19.90;50.14
66524;BME280;53350;52.210;5.160;2022-09-01T07:57:53;102209.13;;;20.01;49.93
66524;BME280;53350;52.210;5.160;2022-09-01T08:00:21;102206.31;;;20.07;49.78
66524;BME280;53350;52.210;5.160;2022-09-01T08:02:48;102214.84;;;20.14;49.72
66524;BME280;53350;52.210;5.160;2022-09-01T08:05:16;102203.09;;;20.27;49.26
66524;BME280;53350;52.210;5.160;2022-09-01T08:07:46;102202.88;;;20.35;48.81
66524;BME280;53350;52.210;5.160;2022-09-01T08:10:14;102202.63;;;20.43;49.02
66524;BME280;53350;52.210;5.160;2022-09-01T08:12:41;102205.50;;;20.62;48.78
66524;BME280;53350;52.210;5.160;2022-09-01T08:15:10;102204.91;;;20.80;48.50
66524;BME280;53350;52.210;5.160;2022-09-01T08:17:39;102205.16;;;20.99;48.45
66524;BME280;53350;52.210;5.160;2022-09-01T08:20:07;102201.84;;;21.19;47.36
66524;BME280;53350;52.210;5.160;2022-09-01T08:22:34;102200.59;;;21.30;45.96
66524;BME280;53350;52.210;5.160;2022-09-01T08:25:02;102207.03;;;21.45;46.34
66524;BME280;53350;52.210;5.160;2022-09-01T08:27:30;102208.44;;;21.55;45.49
66524;BME280;53350;52.210;5.160;2022-09-01T08:29:57;102206.13;;;21.71;45.08
66524;BME280;53350;52.210;5.160;2022-09-01T08:32:24;102197.78;;;21.83;45.08
66524;BME280;53350;52.210;5.160;2022-09-01T08:34:53;102202.66;;;21.93;44.06
66524;BME280;53350;52.210;5.160;2022-09-01T08:37:21;102197.75;;;22.07;43.75
66524;BME280;53350;52.210;5.160;2022-09-01T08:39:47;102201.63;;;22.20;43.65
66524;BME280;53350;52.210;5.160;2022-09-01T08:42:21;102204.66;;;22.32;42.82
66524;BME280;53350;52.210;5.160;2022-09-01T08:44:55;102202.25;;;22.49;42.31
66524;BME280;53350;52.210;5.160;2022-09-01T08:47:24;102207.97;;;22.59;41.31
66524;BME280;53350;52.210;5.160;2022-09-01T08:49:52;102199.72;;;22.68;41.11
66524;BME280;53350;52.210;5.160;2022-09-01T08:52:23;102197.59;;;22.77;40.45
66524;BME280;53350;52.210;5.160;2022-09-01T08:54:55;102190.47;;;22.80;40.72
66524;BME280;53350;52.210;5.160;2022-09-01T08:57:28;102211.06;;;22.89;39.92
66524;BME280;53350;52.210;5.160;2022-09-01T08:59:56;102194.47;;;22.89;39.74
66524;BME280;53350;52.210;5.160;2022-09-01T09:02:35;102166.81;;;22.80;40.73
66524;BME280;53350;52.210;5.160;2022-09-01T09:05:08;102192.59;;;23.13;40.30
66524;BME280;53350;52.210;5.160;2022-09-01T09:08:01;102187.81;;;23.21;39.23
66524;BME280;53350;52.210;5.160;2022-09-01T09:10:37;102188.00;;;23.37;38.54
66524;BME280;53350;52.210;5.160;2022-09-01T09:13:11;102192.56;;;23.53;37.91
66524;BME280;53350;52.210;5.160;2022-09-01T09:15:43;102184.19;;;23.64;37.73
66524;BME280;53350;52.210;5.160;2022-09-01T09:18:16;102184.06;;;23.67;38.14
66524;BME280;53350;52.210;5.160;2022-09-01T09:20:46;102195.22;;;23.72;38.12
66524;BME280;53350;52.210;5.160;2022-09-01T09:23:22;102193.56;;;23.69;37.97
66524;BME280;53350;52.210;5.160;2022-09-01T09:25:49;102169.34;;;23.63;38.11
66524;BME280;53350;52.210;5.160;2022-09-01T09:28:16;102180.78;;;23.81;37.39
66524;BME280;53350;52.210;5.160;2022-09-01T09:30:42;102175.44;;;23.82;37.47
66524;BME280;53350;52.210;5.160;2022-09-01T09:33:09;102172.81;;;23.82;36.85
66524;BME280;53350;52.210;5.160;2022-09-01T09:35:39;102171.75;;;23.86;37.46
66524;BME280;53350;52.210;5.160;2022-09-01T09:38:23;102162.34;;;24.00;37.43
66524;BME280;53350;52.210;5.160;2022-09-01T09:40:59;102156.44;;;24.13;36.96
66524;BME280;53350;52.210;5.160;2022-09-01T09:43:28;102156.84;;;24.23;36.47
66524;BME280;53350;52.210;5.160;2022-09-01T09:46:22;102153.13;;;24.27;36.58
66524;BME280;53350;52.210;5.160;2022-09-01T09:49:05;102148.72;;;24.45;36.21
66524;BME280;53350;52.210;5.160;2022-09-01T09:51:32;102146.41;;;24.57;35.78
66524;BME280;53350;52.210;5.160;2022-09-01T09:54:12;102146.88;;;24.65;35.08
66524;BME280;53350;52.210;5.160;2022-09-01T09:56:40;102143.78;;;24.74;34.59
66524;BME280;53350;52.210;5.160;2022-09-01T09:59:17;102141.06;;;24.76;34.83
66524;BME280;53350;52.210;5.160;2022-09-01T10:01:44;102151.44;;;24.79;34.22
66524;BME280;53350;52.210;5.160;2022-09-01T10:04:31;102140.97;;;24.77;33.56
66524;BME280;53350;52.210;5.160;2022-09-01T10:06:58;102131.19;;;24.79;33.05
66524;BME280;53350;52.210;5.160;2022-09-01T10:09:35;102140.22;;;24.75;32.52
66524;BME280;53350;52.210;5.160;2022-09-01T10:12:03;102132.06;;;24.80;32.58
66524;BME280;53350;52.210;5.160;2022-09-01T10:14:34;102129.28;;;24.83;32.21
66524;BME280;53350;52.210;5.160;2022-09-01T10:17:09;102123.28;;;24.79;32.72
66524;BME280;53350;52.210;5.160;2022-09-01T10:19:39;102127.84;;;24.93;32.50
66524;BME280;53350;52.210;5.160;2022-09-01T10:22:09;102132.22;;;24.94;32.19
66524;BME280;53350;52.210;5.160;2022-09-01T10:24:38;102125.59;;;25.03;32.23
66524;BME280;53350;52.210;5.160;2022-09-01T10:27:07;102117.59;;;25.05;32.12
66524;BME280;53350;52.210;5.160;2022-09-01T10:29:38;102126.19;;;25.08;32.27
66524;BME280;53350;52.210;5.160;2022-09-01T10:32:10;102117.25;;;25.11;32.38
66524;BME280;53350;52.210;5.160;2022-09-01T10:34:38;102121.63;;;25.12;32.64
66524;BME280;53350;52.210;5.160;2022-09-01T10:37:06;102127.47;;;25.17;32.07
66524;BME280;53350;52.210;5.160;2022-09-01T10:39:33;102115.34;;;25.14;31.98
66524;BME280;53350;52.210;5.160;2022-09-01T10:42:17;102125.88;;;25.14;32.24
66524;BME280;53350;52.210;5.160;2022-09-01T10:44:55;102121.63;;;25.12;32.13
66524;BME280;53350;52.210;5.160;2022-09-01T10:47:24;102119.97;;;25.09;32.51
66524;BME280;53350;52.210;5.160;2022-09-01T10:50:01;102119.91;;;25.11;32.70
66524;BME280;53350;52.210;5.160;2022-09-01T10:53:05;102118.53;;;25.04;32.66
66524;BME280;53350;52.210;5.160;2022-09-01T10:55:36;102115.31;;;24.98;32.95
66524;BME280;53350;52.210;5.160;2022-09-01T10:58:32;102108.94;;;24.85;32.82
66524;BME280;53350;52.210;5.160;2022-09-01T11:01:01;102109.56;;;24.90;32.83
66524;BME280;53350;52.210;5.160;2022-09-01T11:03:58;102112.66;;;24.98;32.57
66524;BME280;53350;52.210;5.160;2022-09-01T11:06:53;102111.53;;;25.03;32.39
66524;BME280;53350;52.210;5.160;2022-09-01T11:09:24;102109.06;;;24.99;32.30
66524;BME280;53350;52.210;5.160;2022-09-01T11:12:06;102103.81;;;24.99;32.29
66524;BME280;53350;52.210;5.160;2022-09-01T11:14:48;102110.03;;;24.98;32.63
66524;BME280;53350;52.210;5.160;2022-09-01T11:17:19;102113.59;;;24.97;32.36
66524;BME280;53350;52.210;5.160;2022-09-01T11:19:46;102101.88;;;25.03;32.18
66524;BME280;53350;52.210;5.160;2022-09-01T11:22:26;102100.06;;;25.04;32.19
66524;BME280;53350;52.210;5.160;2022-09-01T11:25:31;102104.13;;;24.93;32.30
66524;BME280;53350;52.210;5.160;2022-09-01T11:28:36;102103.59;;;25.04;32.61
66524;BME280;53350;52.210;5.160;2022-09-01T11:31:23;102105.09;;;25.08;32.32
66524;BME280;53350;52.210;5.160;2022-09-01T11:33:58;102101.03;;;25.18;31.94
66524;BME280;53350;52.210;5.160;2022-09-01T11:36:29;102097.53;;;25.18;31.99
66524;BME280;53350;52.210;5.160;2022-09-01T11:39:05;102095.59;;;25.22;31.58
66524;BME280;53350;52.210;5.160;2022-09-01T11:41:49;102098.16;;;25.23;31.30
66524;BME280;53350;52.210;5.160;2022-09-01T11:44:22;102090.16;;;25.25;31.44
66524;BME280;53350;52.210;5.160;2022-09-01T11:46:51;102085.91;;;25.22;31.40
66524;BME280;53350;52.210;5.160;2022-09-01T11:49:28;102082.91;;;25.28;31.81
66524;BME280;53350;52.210;5.160;2022-09-01T11:51:56;102086.78;;;25.39;30.86
66524;BME280;53350;52.210;5.160;2022-09-01T11:54:24;102087.47;;;25.42;30.58
66524;BME280;53350;52.210;5.160;2022-09-01T11:56:52;102083.13;;;25.41;30.43
66524;BME280;53350;52.210;5.160;2022-09-01T11:59:32;102071.66;;;25.42;30.53
66524;BME280;53350;52.210;5.160;2022-09-01T12:02:01;102064.00;;;25.38;30.47
66524;BME280;53350;52.210;5.160;2022-09-01T12:04:31;102063.31;;;25.34;29.79
66524;BME280;53350;52.210;5.160;2022-09-01T12:07:01;102074.06;;;25.29;29.30
66524;BME280;53350;52.210;5.160;2022-09-01T12:09:33;102055.97;;;25.23;29.61
66524;BME280;53350;52.210;5.160;2022-09-01T12:12:00;102060.66;;;25.34;29.75
66524;BME280;53350;52.210;5.160;2022-09-01T12:14:26;102070.72;;;25.43;29.50
66524;BME280;53350;52.210;5.160;2022-09-01T12:16:58;102067.91;;;25.46;29.20
66524;BME280;53350;52.210;5.160;2022-09-01T12:19:29;102056.56;;;25.44;29.29
66524;BME280;53350;52.210;5.160;2022-09-01T12:21:59;102056.00;;;25.39;29.41
66524;BME280;53350;52.210;5.160;2022-09-01T12:24:27;102048.31;;;25.34;29.47
66524;BME280;53350;52.210;5.160;2022-09-01T12:26:56;102050.47;;;25.44;29.62
66524;BME280;53350;52.210;5.160;2022-09-01T12:29:23;102055.38;;;25.50;29.67
66524;BME280;53350;52.210;5.160;2022-09-01T12:31:51;102062.19;;;25.54;30.11
66524;BME280;53350;52.210;5.160;2022-09-01T12:34:26;102047.13;;;25.56;30.34
66524;BME280;53350;52.210;5.160;2022-09-01T12:37:19;102053.53;;;25.52;30.06
66524;BME280;53350;52.210;5.160;2022-09-01T12:39:48;102051.38;;;25.59;30.09
66524;BME280;53350;52.210;5.160;2022-09-01T12:42:24;102053.81;;;25.62;30.15
66524;BME280;53350;52.210;5.160;2022-09-01T12:44:53;102054.44;;;25.67;30.33
66524;BME280;53350;52.210;5.160;2022-09-01T12:47:46;102041.81;;;25.72;30.20
66524;BME280;53350;52.210;5.160;2022-09-01T12:50:35;102045.88;;;25.78;30.11
66524;BME280;53350;52.210;5.160;2022-09-01T12:53:03;102041.56;;;25.77;30.31
66524;BME280;53350;52.210;5.160;2022-09-01T12:55:38;102045.03;;;25.77;30.34
66524;BME280;53350;52.210;5.160;2022-09-01T12:58:06;102038.75;;;25.80;30.47
66524;BME280;53350;52.210;5.160;2022-09-01T13:00:35;102034.22;;;25.82;30.68
66524;BME280;53350;52.210;5.160;2022-09-01T13:03:06;102036.38;;;25.75;31.30
66524;BME280;53350;52.210;5.160;2022-09-01T13:05:36;102006.56;;;25.73;30.89
66524;BME280;53350;52.210;5.160;2022-09-01T13:08:05;102036.84;;;25.82;30.88